createdAt,value
2022-11-17T00:01:29.538Z,5.01
2022-11-17T00:03:56.952Z,4.86
2022-11-17T00:06:24.416Z,5.01
2022-11-17T00:08:53.652Z,5.41
2022-11-17T00:11:22.408Z,5.42
2022-11-17T00:14:07.380Z,5.42
2022-11-17T00:16:34.785Z,5.31
2022-11-17T00:19:19.522Z,5.08
2022-11-17T00:21:46.894Z,4.96
2022-11-17T00:24:17.240Z,5.17
2022-11-17T00:27:00.013Z,5.13
2022-11-17T00:29:27.379Z,5.42
2022-11-17T00:32:13.002Z,4.96
2022-11-17T00:34:40.724Z,4.97
2022-11-17T00:37:09.507Z,5.14
2022-11-17T00:39:37.387Z,5.34
2022-11-17T00:42:06.367Z,5.35
2022-11-17T00:44:33.739Z,5.27
2022-11-17T00:47:01.171Z,4.92
2022-11-17T00:49:28.607Z,4.85
2022-11-17T00:51:57.803Z,4.96
2022-11-17T00:54:25.387Z,5.00
2022-11-17T00:56:52.899Z,4.86
2022-11-17T00:59:21.698Z,4.79
2022-11-17T01:01:49.220Z,4.85
2022-11-17T01:04:17.089Z,4.67
2022-11-17T01:06:46.315Z,4.76
2022-11-17T01:09:16.775Z,4.90
2022-11-17T01:11:44.958Z,4.66
2022-11-17T01:14:14.106Z,5.01
2022-11-17T01:16:43.049Z,4.98
2022-11-17T01:19:12.830Z,4.57
2022-11-17T01:21:40.284Z,4.95
2022-11-17T01:24:08.368Z,4.92
2022-11-17T01:26:37.416Z,4.89
2022-11-17T01:29:06.068Z,5.28
2022-11-17T01:31:35.836Z,5.78
2022-11-17T01:34:04.649Z,5.03
2022-11-17T01:36:56.005Z,4.75
2022-11-17T01:39:24.141Z,4.49
2022-11-17T01:41:51.957Z,4.85
2022-11-17T01:44:54.905Z,4.80
2022-11-17T01:47:27.010Z,4.93
2022-11-17T01:50:01.455Z,4.94
2022-11-17T01:52:32.314Z,4.95
2022-11-17T01:55:01.400Z,4.91
2022-11-17T01:57:33.939Z,5.13
2022-11-17T02:00:05.244Z,4.77
2022-11-17T02:02:34.076Z,4.91
2022-11-17T02:05:11.455Z,4.78
2022-11-17T02:07:41.132Z,4.70
2022-11-17T02:10:09.288Z,4.78
2022-11-17T02:12:37.722Z,4.62
2022-11-17T02:15:06.561Z,4.79
2022-11-17T02:17:37.605Z,4.53
2022-11-17T02:20:11.281Z,4.67
2022-11-17T02:23:23.008Z,4.70
2022-11-17T02:26:09.620Z,4.55
2022-11-17T02:28:43.546Z,4.51
2022-11-17T02:31:22.055Z,4.60
2022-11-17T02:37:43.170Z,4.78
2022-11-17T02:40:14.788Z,4.45
2022-11-17T02:43:01.844Z,4.65
2022-11-17T02:45:37.157Z,4.60
2022-11-17T02:48:08.261Z,4.45
2022-11-17T02:50:35.963Z,4.60
2022-11-17T02:53:04.830Z,4.76
2022-11-17T02:55:35.766Z,4.62
2022-11-17T02:58:03.148Z,4.19
2022-11-17T03:00:35.035Z,4.98
2022-11-17T03:03:20.725Z,5.12
2022-11-17T03:05:58.170Z,4.91
2022-11-17T03:08:33.152Z,4.55
2022-11-17T03:11:03.568Z,4.39
2022-11-17T03:13:43.086Z,4.32
2022-11-17T03:16:20.924Z,4.73
2022-11-17T03:18:59.305Z,4.83
2022-11-17T03:21:30.029Z,5.06
2022-11-17T03:24:04.954Z,4.59
2022-11-17T03:26:35.852Z,4.57
2022-11-17T03:29:08.539Z,4.60
2022-11-17T03:31:39.299Z,4.58
2022-11-17T03:34:12.473Z,4.58
2022-11-17T03:36:45.209Z,4.46
2022-11-17T03:39:16.622Z,4.58
2022-11-17T03:41:48.906Z,4.38
2022-11-17T03:44:19.426Z,4.78
2022-11-17T03:46:50.137Z,4.92
2022-11-17T03:49:24.542Z,5.45
2022-11-17T03:51:52.306Z,5.48
2022-11-17T03:54:19.857Z,5.32
2022-11-17T03:56:54.643Z,4.93
2022-11-17T03:59:28.070Z,5.04
2022-11-17T04:01:57.030Z,5.14
2022-11-17T04:04:25.013Z,4.87
2022-11-17T04:06:53.368Z,4.80
2022-11-17T04:09:24.381Z,5.14
2022-11-17T04:12:09.647Z,4.51
2022-11-17T04:14:54.470Z,4.54
2022-11-17T04:17:23.530Z,5.20
2022-11-17T04:19:50.920Z,5.38
2022-11-17T04:22:18.313Z,5.21
2022-11-17T04:24:45.752Z,5.03
2022-11-17T04:27:30.777Z,4.88
2022-11-17T04:29:58.173Z,5.57
2022-11-17T04:32:26.863Z,5.03
2022-11-17T04:34:54.249Z,4.74
2022-11-17T04:37:22.832Z,5.22
2022-11-17T04:39:50.474Z,4.69
2022-11-17T04:42:17.005Z,4.79
2022-11-17T04:44:44.401Z,5.45
2022-11-17T04:47:11.767Z,5.79
2022-11-17T04:49:40.506Z,5.74
2022-11-17T04:52:07.913Z,5.15
2022-11-17T04:54:35.312Z,4.75
2022-11-17T04:57:02.701Z,4.53
2022-11-17T04:59:30.100Z,4.42
2022-11-17T05:02:02.512Z,5.03
2022-11-17T05:04:50.262Z,5.45
2022-11-17T05:07:19.021Z,5.28
2022-11-17T05:09:46.440Z,5.39
2022-11-17T05:12:31.355Z,5.48
2022-11-17T05:14:58.710Z,4.65
2022-11-17T05:17:25.156Z,4.96
2022-11-17T05:19:52.589Z,4.63
2022-11-17T05:22:41.844Z,4.86
2022-11-17T05:25:10.228Z,5.16
2022-11-17T05:27:38.081Z,4.74
2022-11-17T05:30:08.128Z,5.21
2022-11-17T05:32:35.641Z,5.35
2022-11-17T05:35:03.040Z,4.80
2022-11-17T05:37:31.750Z,4.74
2022-11-17T05:39:59.117Z,5.03
2022-11-17T05:42:26.537Z,4.93
2022-11-17T05:44:53.898Z,5.51
2022-11-17T05:47:21.284Z,5.56
2022-11-17T05:49:48.673Z,5.86
2022-11-17T05:52:16.270Z,5.41
2022-11-17T05:54:45.137Z,5.30
2022-11-17T05:57:17.750Z,5.29
2022-11-17T05:59:50.315Z,5.23
2022-11-17T06:02:24.510Z,4.83
2022-11-17T06:04:52.470Z,5.13
2022-11-17T06:07:20.567Z,5.50
2022-11-17T06:09:49.460Z,5.71
2022-11-17T06:12:17.072Z,5.28
2022-11-17T06:14:44.465Z,5.37
2022-11-17T06:17:22.138Z,5.18
2022-11-17T06:19:56.383Z,4.95
2022-11-17T06:22:26.170Z,5.07
2022-11-17T06:24:55.700Z,5.04
2022-11-17T06:27:23.480Z,5.01
2022-11-17T06:29:51.291Z,5.24
2022-11-17T06:32:20.802Z,5.05
2022-11-17T06:34:55.612Z,5.60
2022-11-17T06:37:23.988Z,5.05
2022-11-17T06:39:51.619Z,4.93
2022-11-17T06:42:40.326Z,5.03
2022-11-17T06:45:08.964Z,5.11
2022-11-17T06:47:36.351Z,5.37
2022-11-17T06:50:04.070Z,5.22
2022-11-17T06:52:31.477Z,5.25
2022-11-17T06:54:58.906Z,5.04
2022-11-17T06:57:27.606Z,4.93
2022-11-17T06:59:55.036Z,5.28
2022-11-17T07:02:22.482Z,5.44
2022-11-17T07:04:49.870Z,5.04
2022-11-17T07:07:17.293Z,5.30
2022-11-17T07:09:44.713Z,5.38
2022-11-17T07:12:12.092Z,5.51
2022-11-17T07:14:40.872Z,5.36
2022-11-17T07:17:08.538Z,5.33
2022-11-17T07:19:35.939Z,5.67
2022-11-17T07:22:04.597Z,5.43
2022-11-17T07:24:32.057Z,5.44
2022-11-17T07:26:59.473Z,5.55
2022-11-17T07:29:28.783Z,5.24
2022-11-17T07:31:57.494Z,5.25
2022-11-17T07:34:24.889Z,5.29
2022-11-17T07:36:52.279Z,5.67
2022-11-17T07:39:21.743Z,5.20
2022-11-17T07:41:49.472Z,5.68
2022-11-17T07:44:16.860Z,6.08
2022-11-17T07:46:44.260Z,6.07
2022-11-17T07:49:12.969Z,5.92
2022-11-17T07:51:40.398Z,6.60
2022-11-17T07:54:07.898Z,5.66
2022-11-17T07:56:35.513Z,5.89
2022-11-17T07:59:02.880Z,5.60
2022-11-17T08:01:30.502Z,5.81
2022-11-17T08:03:58.446Z,5.87
2022-11-17T08:06:27.324Z,5.66
2022-11-17T08:08:54.763Z,5.56
2022-11-17T08:11:22.307Z,5.74
2022-11-17T08:13:50.835Z,5.63
2022-11-17T08:16:18.744Z,5.84
2022-11-17T08:18:51.806Z,5.67
2022-11-17T08:21:19.662Z,5.64
2022-11-17T08:23:51.134Z,5.80
2022-11-17T08:26:19.182Z,5.81
2022-11-17T08:28:46.581Z,6.29
2022-11-17T08:31:14.444Z,6.02
2022-11-17T08:33:41.813Z,5.90
2022-11-17T08:36:09.647Z,6.04
2022-11-17T08:38:38.618Z,6.01
2022-11-17T08:41:09.318Z,6.02
2022-11-17T08:43:36.738Z,5.73
2022-11-17T08:46:04.409Z,6.06
2022-11-17T08:48:33.141Z,5.87
2022-11-17T08:51:06.352Z,6.05
2022-11-17T08:53:33.984Z,5.70
2022-11-17T08:56:01.661Z,5.50
2022-11-17T08:58:30.390Z,6.18
2022-11-17T09:01:03.844Z,6.03
2022-11-17T09:03:32.662Z,5.85
2022-11-17T09:06:02.080Z,5.74
2022-11-17T09:08:45.152Z,5.88
2022-11-17T09:11:17.094Z,6.09
2022-11-17T09:13:46.742Z,6.34
2022-11-17T09:16:15.384Z,6.73
2022-11-17T09:18:43.007Z,7.01
2022-11-17T09:21:13.419Z,6.03
2022-11-17T09:23:40.897Z,6.75
2022-11-17T09:26:10.286Z,6.40
2022-11-17T09:28:38.023Z,6.11
2022-11-17T09:31:11.812Z,6.38
2022-11-17T09:33:39.733Z,7.02
2022-11-17T09:36:08.259Z,6.62
2022-11-17T09:38:36.190Z,6.45
2022-11-17T09:41:12.823Z,6.36
2022-11-17T09:43:45.987Z,6.33
2022-11-17T09:46:21.505Z,6.81
2022-11-17T09:48:54.660Z,6.33
2022-11-17T09:51:26.097Z,6.73
2022-11-17T09:53:58.378Z,6.76
2022-11-17T09:56:28.073Z,6.68
2022-11-17T09:58:59.715Z,6.32
2022-11-17T10:01:29.926Z,6.53
2022-11-17T10:04:00.023Z,7.20
2022-11-17T10:06:29.714Z,6.61
2022-11-17T10:09:02.802Z,6.45
2022-11-17T10:11:35.095Z,6.08
2022-11-17T10:14:04.953Z,6.83
2022-11-17T10:16:33.710Z,6.97
2022-11-17T10:19:03.304Z,6.22
2022-11-17T10:21:31.325Z,6.06
2022-11-17T10:24:00.389Z,6.14
2022-11-17T10:26:28.079Z,6.52
2022-11-17T10:29:09.052Z,6.14
2022-11-17T10:31:46.152Z,6.71
2022-11-17T10:34:37.065Z,6.76
2022-11-17T10:37:28.182Z,7.35
2022-11-17T10:40:23.658Z,6.08
2022-11-17T10:43:00.729Z,5.97
2022-11-17T10:45:28.987Z,6.47
2022-11-17T10:48:11.541Z,6.51
2022-11-17T10:50:38.961Z,6.98
2022-11-17T10:53:30.464Z,6.46
2022-11-17T10:56:04.806Z,6.57
2022-11-17T10:58:33.803Z,6.66
2022-11-17T11:01:04.009Z,6.84
2022-11-17T11:03:34.991Z,6.44
2022-11-17T11:06:10.769Z,7.13
2022-11-17T11:08:50.912Z,7.50
2022-11-17T11:11:35.896Z,6.82
2022-11-17T11:14:13.107Z,6.11
2022-11-17T11:16:46.682Z,6.06
2022-11-17T11:19:19.844Z,6.97
2022-11-17T11:22:06.064Z,7.25
2022-11-17T11:24:42.690Z,7.22
2022-11-17T11:27:29.131Z,6.80
2022-11-17T11:30:03.272Z,6.77
2022-11-17T11:32:39.950Z,7.20
2022-11-17T11:35:34.702Z,6.38
2022-11-17T11:38:16.516Z,6.25
2022-11-17T11:40:52.776Z,6.28
2022-11-17T11:43:33.898Z,6.16
2022-11-17T11:46:08.985Z,6.18
2022-11-17T11:48:40.808Z,6.23
2022-11-17T11:51:15.716Z,6.05
2022-11-17T11:53:50.583Z,6.16
2022-11-17T11:56:21.927Z,6.35
2022-11-17T11:58:55.038Z,6.26
2022-11-17T12:01:24.527Z,5.94
2022-11-17T12:03:59.065Z,6.03
2022-11-17T12:06:43.317Z,5.93
2022-11-17T12:09:26.105Z,6.40
2022-11-17T12:12:11.609Z,6.45
2022-11-17T12:14:39.514Z,6.37
2022-11-17T12:17:23.191Z,6.13
2022-11-17T12:19:57.215Z,6.65
2022-11-17T12:22:50.250Z,6.75
2022-11-17T12:25:20.120Z,6.24
2022-11-17T12:27:49.611Z,6.63
2022-11-17T12:30:55.757Z,6.48
2022-11-17T12:33:24.379Z,6.89
2022-11-17T12:36:31.075Z,6.26
2022-11-17T12:39:01.441Z,6.57
2022-11-17T12:42:06.502Z,6.15
2022-11-17T12:44:59.144Z,6.43
2022-11-17T12:47:29.017Z,6.29
2022-11-17T12:50:33.039Z,6.26
2022-11-17T12:53:24.297Z,6.16
2022-11-17T12:56:08.757Z,6.34
2022-11-17T12:58:46.845Z,6.32
2022-11-17T13:01:21.102Z,6.75
2022-11-17T13:03:55.786Z,6.89
2022-11-17T13:06:38.491Z,6.73
2022-11-17T13:09:07.429Z,6.56
2022-11-17T13:11:36.453Z,6.16
2022-11-17T13:14:09.443Z,6.30
2022-11-17T13:16:38.407Z,6.42
2022-11-17T13:19:30.573Z,6.85
2022-11-17T13:22:00.994Z,6.11
2022-11-17T13:24:34.012Z,5.90
2022-11-17T13:27:07.208Z,6.33
2022-11-17T13:29:35.230Z,6.32
2022-11-17T13:32:12.575Z,6.53
2022-11-17T13:34:47.505Z,5.97
2022-11-17T13:37:18.001Z,6.10
2022-11-17T13:39:59.503Z,6.15
2022-11-17T13:42:32.125Z,6.12
2022-11-17T13:45:02.815Z,6.07
2022-11-17T13:47:46.360Z,6.41
2022-11-17T13:50:37.981Z,6.01
2022-11-17T13:53:19.403Z,6.74
2022-11-17T13:55:48.009Z,6.45
2022-11-17T13:58:28.412Z,6.00
2022-11-17T14:00:57.961Z,6.08
2022-11-17T14:03:44.353Z,5.91
2022-11-17T14:06:13.706Z,5.92
2022-11-17T14:08:42.783Z,6.08
2022-11-17T14:11:21.121Z,5.89
2022-11-17T14:13:51.935Z,5.96
2022-11-17T14:16:27.773Z,5.89
2022-11-17T14:19:00.987Z,6.30
2022-11-17T14:21:29.253Z,6.91
2022-11-17T14:24:11.090Z,5.75
2022-11-17T14:26:44.431Z,6.04
2022-11-17T14:29:14.225Z,6.09
2022-11-17T14:31:41.709Z,6.08
2022-11-17T14:34:09.111Z,5.88
2022-11-17T14:36:37.788Z,6.12
2022-11-17T14:39:12.154Z,5.87
2022-11-17T14:41:40.783Z,5.76
2022-11-17T14:44:08.344Z,5.93
2022-11-17T14:46:37.339Z,5.73
2022-11-17T14:49:05.478Z,5.93
2022-11-17T14:51:33.515Z,5.71
2022-11-17T14:54:01.509Z,5.85
2022-11-17T14:56:28.860Z,5.87
2022-11-17T14:58:59.000Z,6.04
2022-11-17T15:01:30.323Z,5.85
2022-11-17T15:04:15.356Z,5.92
2022-11-17T15:06:48.819Z,5.77
2022-11-17T15:09:16.569Z,5.68
2022-11-17T15:11:44.019Z,5.56
2022-11-17T15:14:11.728Z,5.71
2022-11-17T15:16:39.130Z,5.58
2022-11-17T15:19:07.874Z,5.90
2022-11-17T15:21:35.286Z,5.25
2022-11-17T15:24:03.342Z,5.42
2022-11-17T15:26:30.746Z,5.72
2022-11-17T15:29:01.151Z,5.86
2022-11-17T15:31:29.100Z,5.40
2022-11-17T15:33:56.491Z,5.50
2022-11-17T15:36:25.402Z,5.49
2022-11-17T15:38:53.949Z,5.68
2022-11-17T15:41:21.383Z,5.22
2022-11-17T15:43:48.919Z,5.39
2022-11-17T15:46:18.208Z,5.58
2022-11-17T15:48:47.217Z,6.25
2022-11-17T15:51:16.775Z,6.11
2022-11-17T15:53:47.233Z,5.84
2022-11-17T15:56:16.778Z,5.61
2022-11-17T15:58:44.577Z,5.20
2022-11-17T16:01:14.035Z,5.20
2022-11-17T16:03:42.844Z,5.52
2022-11-17T16:06:11.009Z,5.37
2022-11-17T16:08:39.415Z,5.62
2022-11-17T16:11:10.359Z,5.34
2022-11-17T16:13:38.876Z,5.28
2022-11-17T16:16:07.416Z,5.38
2022-11-17T16:18:37.554Z,5.09
2022-11-17T16:21:06.751Z,5.73
2022-11-17T16:23:38.633Z,5.28
2022-11-17T16:26:06.218Z,5.97
2022-11-17T16:28:35.070Z,5.62
2022-11-17T16:31:13.212Z,5.24
2022-11-17T16:33:40.664Z,5.29
2022-11-17T16:36:09.319Z,5.15
2022-11-17T16:38:42.318Z,4.88
2022-11-17T16:41:13.260Z,5.18
2022-11-17T16:43:44.713Z,5.01
2022-11-17T16:46:16.927Z,5.33
2022-11-17T16:48:44.311Z,4.85
2022-11-17T16:51:11.698Z,5.39
2022-11-17T16:53:39.089Z,5.64
2022-11-17T16:56:08.302Z,5.39
2022-11-17T16:58:36.232Z,5.55
2022-11-17T17:01:12.673Z,5.80
2022-11-17T17:03:41.438Z,6.10
2022-11-17T17:06:10.844Z,5.63
2022-11-17T17:08:38.621Z,5.64
2022-11-17T17:11:07.948Z,5.13
2022-11-17T17:13:36.403Z,5.15
2022-11-17T17:16:04.617Z,4.83
2022-11-17T17:18:33.821Z,4.95
2022-11-17T17:21:01.501Z,5.08
2022-11-17T17:23:29.584Z,5.35
2022-11-17T17:26:04.798Z,5.48
2022-11-17T17:28:32.864Z,5.24
2022-11-17T17:31:00.637Z,4.81
2022-11-17T17:33:28.571Z,5.01
2022-11-17T17:36:02.354Z,5.18
2022-11-17T17:38:29.818Z,5.56
2022-11-17T17:40:57.307Z,5.55
2022-11-17T17:43:24.730Z,4.98
2022-11-17T17:45:53.790Z,4.48
2022-11-17T17:48:21.170Z,4.49
2022-11-17T17:50:49.146Z,4.37
2022-11-17T17:53:17.863Z,4.37
2022-11-17T17:55:45.249Z,4.58
2022-11-17T17:58:12.653Z,4.88
2022-11-17T18:00:40.158Z,4.55
2022-11-17T18:03:07.606Z,4.69
2022-11-17T18:05:35.020Z,4.57
2022-11-17T18:08:04.684Z,4.88
2022-11-17T18:10:33.402Z,4.79
2022-11-17T18:13:00.788Z,4.76
2022-11-17T18:15:28.452Z,4.45
2022-11-17T18:17:55.816Z,4.68
2022-11-17T18:20:23.507Z,4.62
2022-11-17T18:22:50.859Z,5.38
2022-11-17T18:25:18.265Z,6.35
2022-11-17T18:27:46.946Z,5.44
2022-11-17T18:30:14.573Z,6.25
2022-11-17T18:32:41.964Z,6.21
2022-11-17T18:35:09.780Z,5.41
2022-11-17T18:37:37.146Z,5.24
2022-11-17T18:40:05.100Z,4.73
2022-11-17T18:42:33.499Z,5.03
2022-11-17T18:45:02.198Z,5.36
2022-11-17T18:47:29.744Z,4.75
2022-11-17T18:49:57.176Z,4.87
2022-11-17T18:52:28.594Z,4.97
2022-11-17T18:54:58.733Z,5.19
2022-11-17T18:57:26.092Z,6.42
2022-11-17T18:59:53.451Z,4.60
2022-11-17T19:02:22.149Z,4.89
2022-11-17T19:04:49.512Z,4.54
2022-11-17T19:07:17.048Z,4.40
2022-11-17T19:09:44.455Z,4.28
2022-11-17T19:12:12.479Z,4.61
2022-11-17T19:14:39.850Z,5.23
2022-11-17T19:17:07.811Z,4.69
2022-11-17T19:19:36.695Z,4.70
2022-11-17T19:22:04.456Z,4.57
2022-11-17T19:24:31.920Z,4.63
2022-11-17T19:26:59.413Z,4.62
2022-11-17T19:29:26.801Z,4.83
2022-11-17T19:31:54.623Z,4.73
2022-11-17T19:34:22.111Z,4.20
2022-11-17T19:36:50.829Z,4.08
2022-11-17T19:39:18.537Z,4.43
2022-11-17T19:41:47.626Z,4.47
2022-11-17T19:44:15.159Z,3.88
2022-11-17T19:46:43.258Z,3.89
2022-11-17T19:49:12.774Z,4.08
2022-11-17T19:51:41.157Z,3.91
2022-11-17T19:54:13.299Z,4.30
2022-11-17T19:56:40.955Z,4.24
2022-11-17T19:59:13.951Z,4.27
2022-11-17T20:01:43.617Z,4.00
2022-11-17T20:04:11.173Z,4.01
2022-11-17T20:06:39.860Z,3.96
2022-11-17T20:09:08.994Z,4.29
2022-11-17T20:11:38.014Z,4.14
2022-11-17T20:14:06.236Z,3.80
2022-11-17T20:16:34.511Z,3.88
2022-11-17T20:19:02.999Z,3.60
2022-11-17T20:21:31.840Z,3.52
2022-11-17T20:24:01.078Z,3.78
2022-11-17T20:26:30.897Z,3.79
2022-11-17T20:29:00.511Z,3.66
2022-11-17T20:31:29.943Z,3.65
2022-11-17T20:34:00.545Z,3.69
2022-11-17T20:36:29.100Z,3.85
2022-11-17T20:38:58.009Z,3.65
2022-11-17T20:41:26.165Z,4.29
2022-11-17T20:43:55.436Z,3.87
2022-11-17T20:46:26.574Z,4.63
2022-11-17T20:48:54.556Z,4.45
2022-11-17T20:51:23.469Z,4.36
2022-11-17T20:53:54.506Z,4.42
2022-11-17T20:56:21.965Z,4.16
2022-11-17T20:58:50.177Z,4.64
2022-11-17T21:01:19.664Z,4.41
2022-11-17T21:03:49.354Z,4.42
2022-11-17T21:06:18.299Z,4.36
2022-11-17T21:08:47.962Z,4.33
2022-11-17T21:11:37.742Z,4.02
2022-11-17T21:14:06.894Z,4.24
2022-11-17T21:16:38.376Z,3.82
2022-11-17T21:19:12.074Z,4.35
2022-11-17T21:21:39.762Z,3.68
2022-11-17T21:24:07.885Z,3.92
2022-11-17T21:26:35.590Z,4.07
2022-11-17T21:29:06.693Z,4.23
2022-11-17T21:31:34.850Z,3.99
2022-11-17T21:34:05.189Z,3.55
2022-11-17T21:36:35.677Z,3.73
2022-11-17T21:39:03.171Z,4.59
2022-11-17T21:41:38.589Z,3.87
2022-11-17T21:44:06.627Z,3.97
2022-11-17T21:46:37.728Z,3.40
2022-11-17T21:49:05.317Z,3.56
2022-11-17T21:51:38.194Z,3.89
2022-11-17T21:54:08.358Z,3.94
2022-11-17T21:56:42.606Z,3.91
2022-11-17T21:59:12.870Z,3.52
2022-11-17T22:01:40.869Z,3.49
2022-11-17T22:04:08.350Z,3.60
2022-11-17T22:06:39.332Z,3.47
2022-11-17T22:09:06.842Z,3.65
2022-11-17T22:11:37.784Z,3.98
2022-11-17T22:14:08.086Z,3.54
2022-11-17T22:16:36.168Z,3.75
2022-11-17T22:19:03.901Z,3.54
2022-11-17T22:21:31.320Z,3.48
2022-11-17T22:24:00.564Z,3.18
2022-11-17T22:26:28.083Z,3.39
2022-11-17T22:28:56.837Z,3.57
2022-11-17T22:31:24.819Z,3.95
2022-11-17T22:33:52.400Z,3.59
2022-11-17T22:36:20.607Z,4.05
2022-11-17T22:38:51.221Z,3.81
2022-11-17T22:41:21.612Z,4.28
2022-11-17T22:43:50.664Z,4.22
2022-11-17T22:46:19.294Z,3.41
2022-11-17T22:48:47.136Z,3.56
2022-11-17T22:51:35.394Z,3.54
2022-11-17T22:54:02.798Z,3.12
2022-11-17T22:56:31.863Z,4.37
2022-11-17T22:58:59.948Z,3.49
2022-11-17T23:01:27.780Z,3.44
2022-11-17T23:03:55.339Z,3.48
2022-11-17T23:06:24.134Z,3.22
2022-11-17T23:08:51.699Z,4.26
2022-11-17T23:11:36.486Z,4.37
2022-11-17T23:14:07.770Z,4.22
2022-11-17T23:16:35.266Z,4.71
2022-11-17T23:19:02.694Z,4.79
2022-11-17T23:21:30.293Z,4.99
2022-11-17T23:23:57.809Z,5.35
2022-11-17T23:26:25.227Z,6.08
2022-11-17T23:28:52.857Z,6.26
2022-11-17T23:31:21.924Z,5.09
2022-11-17T23:33:49.671Z,5.68
2022-11-17T23:36:19.186Z,5.15
2022-11-17T23:38:47.038Z,6.15
2022-11-17T23:41:17.326Z,5.87
2022-11-17T23:43:44.776Z,3.89
2022-11-17T23:46:15.113Z,3.60
2022-11-17T23:48:44.612Z,3.18
2022-11-17T23:51:13.951Z,4.08
2022-11-17T23:53:41.985Z,3.23
2022-11-17T23:56:10.373Z,3.00
2022-11-17T23:58:38.115Z,3.37
